Pagrindinis puslapis
METAR-TAF:

METAR-TAF

Oro uostai :

Ilorin, Nigerija

platuma: 08-29N, ilguma: 004-35E, Aukštis: 308 m

METAR: trūkstamas

Laikas: 22:35 (21:35 UTC)

Prognozė

Ataskaita buvo paskelbta 4 valandos ir 35 minutes, ne 17:00 UTC
Prognozė galioja nuo 19 metu 18 UTC su 20 metu 24 UTC
Vėjas 2 kt nuo kintamojo kryptimis
Matomumas 10 km arba daugiau
Išsisklaidę debesys ne aukštis 1300 ft
Laikinai
nuo 19 metu 20 UTC su 19 metu 24 UTC
Su prošvaistėmis ne aukštis 1300 ft
Laikinai
nuo 20 metu 04 UTC su 20 metu 10 UTC
Mažai debesys ne aukštis 1400 ft
Mažai debesys ne aukštis 2000 ft, Liūtiniai kamuoliniai debesys.
perkūnija
Tapsmas
nuo 20 metu 10 UTC su 20 metu 12 UTC
Vėjas 10 kt iš Pietų/Pietvakarių
Išsisklaidę debesys ne aukštis 1100 ft

TAF: DNIL 191700Z 1918/2024 VRB02KT 9999 SCT013 TEMPO 1920/1924 BKN013 TEMPO 2004/2010 TS FEW014 FEW020CB BECMG 2010/2012 20010KT SCT011

Orai ataskaitas ir orų prognozės (METAR, TAF).

turimą stotys yra geltonos ir raudonos taškus žemėlapyje.

Perkelti pele per norėdami pamatyti stoties vardą.

Tada spustelėkite, norėdami matyti oro stebėjimo ir prognozės.

Norėdami pakeisti žemėlapį: spustelėkite ant žalios mygtukų su juodo kryžiaus žemyn,; žalią mygtuką su brūkšneliu, jei norite nutolinti; arba žalių rodyklių gretimoms žemėlapius.


METAR-TAF: